sensor_id;sensor_type;location;lat;lon;timestamp;temperature;humidity
37782;DHT22;23621;50.878;4.584;2022-10-16T00:01:29;21.00;75.10
37782;DHT22;23621;50.878;4.584;2022-10-16T00:03:58;21.00;75.10
37782;DHT22;23621;50.878;4.584;2022-10-16T00:06:26;21.00;75.00
37782;DHT22;23621;50.878;4.584;2022-10-16T00:08:54;20.90;75.00
37782;DHT22;23621;50.878;4.584;2022-10-16T00:11:27;20.90;75.10
37782;DHT22;23621;50.878;4.584;2022-10-16T00:13:59;20.90;75.10
37782;DHT22;23621;50.878;4.584;2022-10-16T00:16:27;20.90;75.30
37782;DHT22;23621;50.878;4.584;2022-10-16T00:18:54;20.80;75.10
37782;DHT22;23621;50.878;4.584;2022-10-16T00:21:24;20.80;75.30
37782;DHT22;23621;50.878;4.584;2022-10-16T00:23:54;20.80;75.30
37782;DHT22;23621;50.878;4.584;2022-10-16T00:26:22;20.80;75.40
37782;DHT22;23621;50.878;4.584;2022-10-16T00:28:50;20.70;75.30
37782;DHT22;23621;50.878;4.584;2022-10-16T00:31:19;20.70;75.40
37782;DHT22;23621;50.878;4.584;2022-10-16T00:33:47;20.70;75.50
37782;DHT22;23621;50.878;4.584;2022-10-16T00:36:16;20.60;75.60
37782;DHT22;23621;50.878;4.584;2022-10-16T00:38:44;20.60;75.60
37782;DHT22;23621;50.878;4.584;2022-10-16T00:41:14;20.60;75.60
37782;DHT22;23621;50.878;4.584;2022-10-16T00:46:24;20.60;75.70
37782;DHT22;23621;50.878;4.584;2022-10-16T00:51:25;20.70;75.50
37782;DHT22;23621;50.878;4.584;2022-10-16T00:53:55;20.70;75.40
37782;DHT22;23621;50.878;4.584;2022-10-16T00:56:22;20.70;75.30
37782;DHT22;23621;50.878;4.584;2022-10-16T00:58:49;20.70;75.30
37782;DHT22;23621;50.878;4.584;2022-10-16T01:01:16;20.70;75.40
37782;DHT22;23621;50.878;4.584;2022-10-16T01:03:43;20.70;75.40
37782;DHT22;23621;50.878;4.584;2022-10-16T01:06:21;20.60;75.50
37782;DHT22;23621;50.878;4.584;2022-10-16T01:12:10;20.50;75.70
37782;DHT22;23621;50.878;4.584;2022-10-16T01:14:55;20.50;75.80
37782;DHT22;23621;50.878;4.584;2022-10-16T01:20:33;20.40;76.10
37782;DHT22;23621;50.878;4.584;2022-10-16T01:28:54;20.40;76.10
37782;DHT22;23621;50.878;4.584;2022-10-16T01:31:25;20.50;76.10
37782;DHT22;23621;50.878;4.584;2022-10-16T01:34:02;20.40;76.00
37782;DHT22;23621;50.878;4.584;2022-10-16T01:36:40;20.50;76.90
37782;DHT22;23621;50.878;4.584;2022-10-16T01:39:09;20.50;76.10
37782;DHT22;23621;50.878;4.584;2022-10-16T01:41:46;20.50;76.10
37782;DHT22;23621;50.878;4.584;2022-10-16T01:44:32;20.50;76.20
37782;DHT22;23621;50.878;4.584;2022-10-16T01:47:00;20.50;76.50
37782;DHT22;23621;50.878;4.584;2022-10-16T01:49:31;20.50;75.90
37782;DHT22;23621;50.878;4.584;2022-10-16T01:52:00;20.60;76.00
37782;DHT22;23621;50.878;4.584;2022-10-16T01:54:31;20.50;75.90
37782;DHT22;23621;50.878;4.584;2022-10-16T01:57:01;20.50;76.00
37782;DHT22;23621;50.878;4.584;2022-10-16T01:59:31;20.50;76.00
37782;DHT22;23621;50.878;4.584;2022-10-16T02:02:01;20.50;75.90
37782;DHT22;23621;50.878;4.584;2022-10-16T02:04:40;20.60;76.00
37782;DHT22;23621;50.878;4.584;2022-10-16T02:07:10;20.60;76.00
37782;DHT22;23621;50.878;4.584;2022-10-16T02:09:37;20.60;76.00
37782;DHT22;23621;50.878;4.584;2022-10-16T02:12:28;20.60;75.90
37782;DHT22;23621;50.878;4.584;2022-10-16T02:14:55;20.60;75.90
37782;DHT22;23621;50.878;4.584;2022-10-16T02:17:22;20.60;75.80
37782;DHT22;23621;50.878;4.584;2022-10-16T02:19:51;20.60;75.80
37782;DHT22;23621;50.878;4.584;2022-10-16T02:25:17;20.60;75.80
37782;DHT22;23621;50.878;4.584;2022-10-16T02:30:21;20.60;75.90
37782;DHT22;23621;50.878;4.584;2022-10-16T02:32:49;20.60;75.90
37782;DHT22;23621;50.878;4.584;2022-10-16T02:35:18;20.60;76.00
37782;DHT22;23621;50.878;4.584;2022-10-16T02:37:48;20.50;76.00
37782;DHT22;23621;50.878;4.584;2022-10-16T02:40:15;20.50;76.10
37782;DHT22;23621;50.878;4.584;2022-10-16T02:42:53;20.50;76.20
37782;DHT22;23621;50.878;4.584;2022-10-16T02:45:21;20.50;76.30
37782;DHT22;23621;50.878;4.584;2022-10-16T02:47:49;20.50;76.30
37782;DHT22;23621;50.878;4.584;2022-10-16T02:50:16;20.50;76.30
37782;DHT22;23621;50.878;4.584;2022-10-16T02:52:43;20.50;76.20
37782;DHT22;23621;50.878;4.584;2022-10-16T02:55:10;20.50;76.20
37782;DHT22;23621;50.878;4.584;2022-10-16T02:57:36;20.50;76.20
37782;DHT22;23621;50.878;4.584;2022-10-16T03:00:05;20.50;76.20
37782;DHT22;23621;50.878;4.584;2022-10-16T03:02:32;20.50;76.20
37782;DHT22;23621;50.878;4.584;2022-10-16T03:04:59;20.50;76.10
37782;DHT22;23621;50.878;4.584;2022-10-16T03:07:25;20.50;76.10
37782;DHT22;23621;50.878;4.584;2022-10-16T03:09:53;20.50;76.10
37782;DHT22;23621;50.878;4.584;2022-10-16T03:12:21;20.50;76.10
37782;DHT22;23621;50.878;4.584;2022-10-16T03:14:48;20.50;76.10
37782;DHT22;23621;50.878;4.584;2022-10-16T03:17:15;20.50;76.20
37782;DHT22;23621;50.878;4.584;2022-10-16T03:19:43;20.50;76.30
37782;DHT22;23621;50.878;4.584;2022-10-16T03:22:10;20.40;76.40
37782;DHT22;23621;50.878;4.584;2022-10-16T03:24:37;20.50;76.50
37782;DHT22;23621;50.878;4.584;2022-10-16T03:27:04;20.40;76.70
37782;DHT22;23621;50.878;4.584;2022-10-16T03:29:32;20.40;76.80
37782;DHT22;23621;50.878;4.584;2022-10-16T03:31:59;20.40;76.90
37782;DHT22;23621;50.878;4.584;2022-10-16T03:34:26;20.40;76.80
37782;DHT22;23621;50.878;4.584;2022-10-16T03:36:54;20.40;76.80
37782;DHT22;23621;50.878;4.584;2022-10-16T03:39:21;20.40;76.80
37782;DHT22;23621;50.878;4.584;2022-10-16T03:41:48;20.40;76.80
37782;DHT22;23621;50.878;4.584;2022-10-16T03:44:14;20.40;76.80
37782;DHT22;23621;50.878;4.584;2022-10-16T03:46:41;20.40;76.80
37782;DHT22;23621;50.878;4.584;2022-10-16T03:49:08;20.40;76.80
37782;DHT22;23621;50.878;4.584;2022-10-16T03:51:35;20.50;76.90
37782;DHT22;23621;50.878;4.584;2022-10-16T03:54:02;20.50;76.90
37782;DHT22;23621;50.878;4.584;2022-10-16T03:56:29;20.50;76.80
37782;DHT22;23621;50.878;4.584;2022-10-16T03:58:56;20.50;76.90
37782;DHT22;23621;50.878;4.584;2022-10-16T04:01:23;20.50;76.90
37782;DHT22;23621;50.878;4.584;2022-10-16T04:03:50;20.50;76.90
37782;DHT22;23621;50.878;4.584;2022-10-16T04:06:16;20.50;76.90
37782;DHT22;23621;50.878;4.584;2022-10-16T04:08:43;20.50;76.90
37782;DHT22;23621;50.878;4.584;2022-10-16T04:11:11;20.50;76.90
37782;DHT22;23621;50.878;4.584;2022-10-16T04:13:37;20.50;76.90
37782;DHT22;23621;50.878;4.584;2022-10-16T04:16:05;20.50;76.90
37782;DHT22;23621;50.878;4.584;2022-10-16T04:18:32;20.50;76.90
37782;DHT22;23621;50.878;4.584;2022-10-16T04:21:06;20.50;77.00
37782;DHT22;23621;50.878;4.584;2022-10-16T04:23:33;20.50;77.10
37782;DHT22;23621;50.878;4.584;2022-10-16T04:26:00;20.40;77.10
37782;DHT22;23621;50.878;4.584;2022-10-16T04:28:27;20.40;77.20
37782;DHT22;23621;50.878;4.584;2022-10-16T04:30:54;20.40;77.30
37782;DHT22;23621;50.878;4.584;2022-10-16T04:33:21;20.30;77.40
37782;DHT22;23621;50.878;4.584;2022-10-16T04:35:48;20.30;77.50
37782;DHT22;23621;50.878;4.584;2022-10-16T04:38:15;20.30;77.50
37782;DHT22;23621;50.878;4.584;2022-10-16T04:40:42;20.30;77.50
37782;DHT22;23621;50.878;4.584;2022-10-16T04:43:09;20.30;77.50
37782;DHT22;23621;50.878;4.584;2022-10-16T04:45:36;20.30;77.50
37782;DHT22;23621;50.878;4.584;2022-10-16T04:48:03;20.30;77.50
37782;DHT22;23621;50.878;4.584;2022-10-16T04:50:29;20.30;77.50
37782;DHT22;23621;50.878;4.584;2022-10-16T04:52:56;20.30;77.50
37782;DHT22;23621;50.878;4.584;2022-10-16T04:55:23;20.30;77.50
37782;DHT22;23621;50.878;4.584;2022-10-16T04:57:50;20.30;77.60
37782;DHT22;23621;50.878;4.584;2022-10-16T05:00:17;20.20;77.60
37782;DHT22;23621;50.878;4.584;2022-10-16T05:02:44;20.20;77.80
37782;DHT22;23621;50.878;4.584;2022-10-16T05:05:11;20.10;77.80
37782;DHT22;23621;50.878;4.584;2022-10-16T05:07:38;20.10;77.90
37782;DHT22;23621;50.878;4.584;2022-10-16T05:10:05;20.10;77.80
37782;DHT22;23621;50.878;4.584;2022-10-16T05:12:32;20.10;77.90
37782;DHT22;23621;50.878;4.584;2022-10-16T05:14:59;20.10;78.00
37782;DHT22;23621;50.878;4.584;2022-10-16T05:17:26;20.10;78.00
37782;DHT22;23621;50.878;4.584;2022-10-16T05:19:54;20.10;78.00
37782;DHT22;23621;50.878;4.584;2022-10-16T05:22:21;20.10;78.00
37782;DHT22;23621;50.878;4.584;2022-10-16T05:24:47;20.10;78.20
37782;DHT22;23621;50.878;4.584;2022-10-16T05:27:14;20.10;78.10
37782;DHT22;23621;50.878;4.584;2022-10-16T05:29:46;20.00;78.00
37782;DHT22;23621;50.878;4.584;2022-10-16T05:32:14;19.90;78.20
37782;DHT22;23621;50.878;4.584;2022-10-16T05:34:42;20.00;78.20
37782;DHT22;23621;50.878;4.584;2022-10-16T05:37:09;20.00;78.10
37782;DHT22;23621;50.878;4.584;2022-10-16T05:39:36;20.00;78.10
37782;DHT22;23621;50.878;4.584;2022-10-16T05:42:03;20.00;78.00
37782;DHT22;23621;50.878;4.584;2022-10-16T05:44:30;20.00;77.90
37782;DHT22;23621;50.878;4.584;2022-10-16T05:47:02;20.10;77.90
37782;DHT22;23621;50.878;4.584;2022-10-16T05:49:29;20.00;77.80
37782;DHT22;23621;50.878;4.584;2022-10-16T05:51:56;20.00;77.80
37782;DHT22;23621;50.878;4.584;2022-10-16T05:54:23;20.00;77.90
37782;DHT22;23621;50.878;4.584;2022-10-16T05:56:49;20.00;77.90
37782;DHT22;23621;50.878;4.584;2022-10-16T05:59:16;20.00;77.90
37782;DHT22;23621;50.878;4.584;2022-10-16T06:01:43;20.00;77.80
37782;DHT22;23621;50.878;4.584;2022-10-16T06:04:10;20.00;77.90
37782;DHT22;23621;50.878;4.584;2022-10-16T06:06:37;19.90;78.00
37782;DHT22;23621;50.878;4.584;2022-10-16T06:09:04;19.90;78.50
37782;DHT22;23621;50.878;4.584;2022-10-16T06:11:31;19.80;78.50
37782;DHT22;23621;50.878;4.584;2022-10-16T06:14:18;19.80;78.70
37782;DHT22;23621;50.878;4.584;2022-10-16T06:16:45;19.90;78.70
37782;DHT22;23621;50.878;4.584;2022-10-16T06:19:11;19.90;78.70
37782;DHT22;23621;50.878;4.584;2022-10-16T06:21:38;19.90;78.50
37782;DHT22;23621;50.878;4.584;2022-10-16T06:24:05;19.90;78.40
37782;DHT22;23621;50.878;4.584;2022-10-16T06:26:32;19.90;78.30
37782;DHT22;23621;50.878;4.584;2022-10-16T06:28:59;19.90;78.30
37782;DHT22;23621;50.878;4.584;2022-10-16T06:31:28;19.90;78.50
37782;DHT22;23621;50.878;4.584;2022-10-16T06:33:58;19.90;78.60
37782;DHT22;23621;50.878;4.584;2022-10-16T06:36:25;19.90;78.70
37782;DHT22;23621;50.878;4.584;2022-10-16T06:38:53;19.90;78.70
37782;DHT22;23621;50.878;4.584;2022-10-16T06:41:21;19.90;78.80
37782;DHT22;23621;50.878;4.584;2022-10-16T06:43:49;19.90;79.00
37782;DHT22;23621;50.878;4.584;2022-10-16T06:46:19;19.90;79.00
37782;DHT22;23621;50.878;4.584;2022-10-16T06:48:46;19.90;79.00
37782;DHT22;23621;50.878;4.584;2022-10-16T06:51:18;19.90;79.00
37782;DHT22;23621;50.878;4.584;2022-10-16T06:53:48;19.90;79.20
37782;DHT22;23621;50.878;4.584;2022-10-16T06:56:32;19.90;79.30
37782;DHT22;23621;50.878;4.584;2022-10-16T06:58:59;19.90;79.20
37782;DHT22;23621;50.878;4.584;2022-10-16T07:01:27;20.00;79.10
37782;DHT22;23621;50.878;4.584;2022-10-16T07:03:54;20.10;79.20
37782;DHT22;23621;50.878;4.584;2022-10-16T07:06:23;20.10;79.10
37782;DHT22;23621;50.878;4.584;2022-10-16T07:08:51;20.20;79.20
37782;DHT22;23621;50.878;4.584;2022-10-16T07:11:20;20.20;79.10
37782;DHT22;23621;50.878;4.584;2022-10-16T07:13:48;20.20;79.20
37782;DHT22;23621;50.878;4.584;2022-10-16T07:16:24;20.10;79.30
37782;DHT22;23621;50.878;4.584;2022-10-16T07:18:52;20.10;79.60
37782;DHT22;23621;50.878;4.584;2022-10-16T07:21:26;20.00;79.70
37782;DHT22;23621;50.878;4.584;2022-10-16T07:23:58;20.00;79.80
37782;DHT22;23621;50.878;4.584;2022-10-16T07:26:27;20.00;80.00
37782;DHT22;23621;50.878;4.584;2022-10-16T07:28:54;20.10;80.10
37782;DHT22;23621;50.878;4.584;2022-10-16T07:31:21;20.10;80.00
37782;DHT22;23621;50.878;4.584;2022-10-16T07:33:49;20.10;80.00
37782;DHT22;23621;50.878;4.584;2022-10-16T07:36:18;20.10;80.00
37782;DHT22;23621;50.878;4.584;2022-10-16T07:38:45;20.10;80.00
37782;DHT22;23621;50.878;4.584;2022-10-16T07:41:15;20.10;80.10
37782;DHT22;23621;50.878;4.584;2022-10-16T07:44:00;20.10;80.30
37782;DHT22;23621;50.878;4.584;2022-10-16T07:46:28;20.20;80.20
37782;DHT22;23621;50.878;4.584;2022-10-16T07:48:55;20.20;80.10
37782;DHT22;23621;50.878;4.584;2022-10-16T07:51:24;20.20;79.90
37782;DHT22;23621;50.878;4.584;2022-10-16T07:53:52;20.30;80.00
37782;DHT22;23621;50.878;4.584;2022-10-16T07:56:20;20.30;80.00
37782;DHT22;23621;50.878;4.584;2022-10-16T07:58:47;20.30;80.00
37782;DHT22;23621;50.878;4.584;2022-10-16T08:01:17;20.40;80.10
37782;DHT22;23621;50.878;4.584;2022-10-16T08:03:46;20.30;80.70
37782;DHT22;23621;50.878;4.584;2022-10-16T08:06:14;20.40;80.10
37782;DHT22;23621;50.878;4.584;2022-10-16T08:08:41;20.50;80.00
37782;DHT22;23621;50.878;4.584;2022-10-16T08:11:08;20.50;79.90
37782;DHT22;23621;50.878;4.584;2022-10-16T08:13:35;20.50;79.80
37782;DHT22;23621;50.878;4.584;2022-10-16T08:16:04;20.60;79.80
37782;DHT22;23621;50.878;4.584;2022-10-16T08:18:38;20.60;79.80
37782;DHT22;23621;50.878;4.584;2022-10-16T08:21:06;20.60;79.70
37782;DHT22;23621;50.878;4.584;2022-10-16T08:23:33;20.60;79.60
37782;DHT22;23621;50.878;4.584;2022-10-16T08:26:06;20.70;79.60
37782;DHT22;23621;50.878;4.584;2022-10-16T08:28:33;20.70;79.50
37782;DHT22;23621;50.878;4.584;2022-10-16T08:31:12;20.70;79.50
37782;DHT22;23621;50.878;4.584;2022-10-16T08:33:41;20.80;79.40
37782;DHT22;23621;50.878;4.584;2022-10-16T08:36:10;20.80;79.20
37782;DHT22;23621;50.878;4.584;2022-10-16T08:38:38;20.80;79.20
37782;DHT22;23621;50.878;4.584;2022-10-16T08:41:20;20.80;79.10
37782;DHT22;23621;50.878;4.584;2022-10-16T08:44:07;20.90;79.00
37782;DHT22;23621;50.878;4.584;2022-10-16T08:49:31;20.90;78.70
37782;DHT22;23621;50.878;4.584;2022-10-16T08:51:58;20.90;78.90
37782;DHT22;23621;50.878;4.584;2022-10-16T08:54:32;21.00;78.90
37782;DHT22;23621;50.878;4.584;2022-10-16T08:57:17;21.00;78.70
37782;DHT22;23621;50.878;4.584;2022-10-16T08:59:49;21.00;78.40
37782;DHT22;23621;50.878;4.584;2022-10-16T09:02:38;21.00;78.50
37782;DHT22;23621;50.878;4.584;2022-10-16T09:05:32;21.10;78.10
37782;DHT22;23621;50.878;4.584;2022-10-16T09:10:58;21.20;78.30
37782;DHT22;23621;50.878;4.584;2022-10-16T09:13:32;21.20;77.90
37782;DHT22;23621;50.878;4.584;2022-10-16T09:16:28;21.30;78.10
37782;DHT22;23621;50.878;4.584;2022-10-16T09:21:31;21.20;77.60
37782;DHT22;23621;50.878;4.584;2022-10-16T09:24:17;21.30;77.70
37782;DHT22;23621;50.878;4.584;2022-10-16T09:26:46;21.30;78.10
37782;DHT22;23621;50.878;4.584;2022-10-16T09:29:18;21.40;77.50
37782;DHT22;23621;50.878;4.584;2022-10-16T09:31:48;21.40;77.20
37782;DHT22;23621;50.878;4.584;2022-10-16T09:34:32;21.30;77.30
37782;DHT22;23621;50.878;4.584;2022-10-16T09:37:03;21.40;77.10
37782;DHT22;23621;50.878;4.584;2022-10-16T09:39:30;21.50;77.10
37782;DHT22;23621;50.878;4.584;2022-10-16T09:41:57;21.50;77.10
37782;DHT22;23621;50.878;4.584;2022-10-16T09:44:29;21.50;76.90
37782;DHT22;23621;50.878;4.584;2022-10-16T09:47:02;21.60;77.00
37782;DHT22;23621;50.878;4.584;2022-10-16T09:49:29;21.50;76.70
37782;DHT22;23621;50.878;4.584;2022-10-16T09:52:23;21.50;76.70
37782;DHT22;23621;50.878;4.584;2022-10-16T09:54:51;21.50;76.50
37782;DHT22;23621;50.878;4.584;2022-10-16T09:57:18;21.60;76.90
37782;DHT22;23621;50.878;4.584;2022-10-16T09:59:56;21.60;76.80
37782;DHT22;23621;50.878;4.584;2022-10-16T10:02:31;21.70;76.70
37782;DHT22;23621;50.878;4.584;2022-10-16T10:05:00;21.70;76.70
37782;DHT22;23621;50.878;4.584;2022-10-16T10:07:35;21.80;76.60
37782;DHT22;23621;50.878;4.584;2022-10-16T10:10:20;21.80;76.30
37782;DHT22;23621;50.878;4.584;2022-10-16T10:12:48;21.90;76.00
37782;DHT22;23621;50.878;4.584;2022-10-16T10:15:15;21.80;75.70
37782;DHT22;23621;50.878;4.584;2022-10-16T10:17:55;21.90;75.70
37782;DHT22;23621;50.878;4.584;2022-10-16T10:22:52;22.00;75.50
37782;DHT22;23621;50.878;4.584;2022-10-16T10:38:57;22.40;74.30
37782;DHT22;23621;50.878;4.584;2022-10-16T10:55:40;22.60;73.60
37782;DHT22;23621;50.878;4.584;2022-10-16T11:01:13;22.60;73.50
37782;DHT22;23621;50.878;4.584;2022-10-16T11:06:40;22.60;73.00
37782;DHT22;23621;50.878;4.584;2022-10-16T11:09:31;22.60;73.20
37782;DHT22;23621;50.878;4.584;2022-10-16T11:12:06;22.70;73.60
37782;DHT22;23621;50.878;4.584;2022-10-16T11:14:35;22.60;73.50
37782;DHT22;23621;50.878;4.584;2022-10-16T11:17:27;22.60;73.20
37782;DHT22;23621;50.878;4.584;2022-10-16T11:20:05;22.80;73.20
37782;DHT22;23621;50.878;4.584;2022-10-16T11:22:58;22.80;73.40
37782;DHT22;23621;50.878;4.584;2022-10-16T11:25:27;23.00;73.40
37782;DHT22;23621;50.878;4.584;2022-10-16T11:28:19;23.00;73.60
37782;DHT22;23621;50.878;4.584;2022-10-16T11:33:42;23.10;73.50
37782;DHT22;23621;50.878;4.584;2022-10-16T11:36:23;23.20;72.70
37782;DHT22;23621;50.878;4.584;2022-10-16T11:39:05;23.30;72.10
37782;DHT22;23621;50.878;4.584;2022-10-16T11:55:35;23.40;70.30
37782;DHT22;23621;50.878;4.584;2022-10-16T11:58:28;23.40;71.10
37782;DHT22;23621;50.878;4.584;2022-10-16T12:06:49;23.50;72.10
37782;DHT22;23621;50.878;4.584;2022-10-16T12:09:26;23.60;72.30
37782;DHT22;23621;50.878;4.584;2022-10-16T12:11:54;23.70;72.50
37782;DHT22;23621;50.878;4.584;2022-10-16T12:14:37;23.80;72.40
37782;DHT22;23621;50.878;4.584;2022-10-16T12:17:36;23.80;72.50
37782;DHT22;23621;50.878;4.584;2022-10-16T12:22:55;23.90;72.50
37782;DHT22;23621;50.878;4.584;2022-10-16T12:25:36;23.90;72.60
37782;DHT22;23621;50.878;4.584;2022-10-16T12:28:19;24.00;72.60
37782;DHT22;23621;50.878;4.584;2022-10-16T12:30:55;24.00;72.60
37782;DHT22;23621;50.878;4.584;2022-10-16T12:33:30;24.00;72.90
37782;DHT22;23621;50.878;4.584;2022-10-16T12:36:02;24.00;73.20
37782;DHT22;23621;50.878;4.584;2022-10-16T12:38:38;24.10;73.40
37782;DHT22;23621;50.878;4.584;2022-10-16T12:41:12;24.10;73.40
37782;DHT22;23621;50.878;4.584;2022-10-16T12:43:44;24.10;73.30
37782;DHT22;23621;50.878;4.584;2022-10-16T12:48:43;24.20;73.10
37782;DHT22;23621;50.878;4.584;2022-10-16T12:54:02;24.30;73.10
37782;DHT22;23621;50.878;4.584;2022-10-16T12:56:38;24.30;72.90
37782;DHT22;23621;50.878;4.584;2022-10-16T13:18:36;24.30;72.20
37782;DHT22;23621;50.878;4.584;2022-10-16T13:21:20;24.40;72.20
37782;DHT22;23621;50.878;4.584;2022-10-16T13:29:31;24.50;71.70
37782;DHT22;23621;50.878;4.584;2022-10-16T13:32:00;24.40;71.70
37782;DHT22;23621;50.878;4.584;2022-10-16T13:34:29;24.50;71.80
37782;DHT22;23621;50.878;4.584;2022-10-16T13:36:55;24.50;71.80
37782;DHT22;23621;50.878;4.584;2022-10-16T13:39:27;24.50;71.80
37782;DHT22;23621;50.878;4.584;2022-10-16T13:42:04;24.60;71.80
37782;DHT22;23621;50.878;4.584;2022-10-16T13:44:47;24.60;72.00
37782;DHT22;23621;50.878;4.584;2022-10-16T13:47:17;24.60;71.90
37782;DHT22;23621;50.878;4.584;2022-10-16T13:49:45;24.70;72.10
37782;DHT22;23621;50.878;4.584;2022-10-16T13:52:18;24.70;72.00
37782;DHT22;23621;50.878;4.584;2022-10-16T13:54:46;24.70;72.00
37782;DHT22;23621;50.878;4.584;2022-10-16T13:57:15;24.70;72.00
37782;DHT22;23621;50.878;4.584;2022-10-16T13:59:52;24.70;72.10
37782;DHT22;23621;50.878;4.584;2022-10-16T14:02:35;24.60;71.80
37782;DHT22;23621;50.878;4.584;2022-10-16T14:05:04;24.70;71.90
37782;DHT22;23621;50.878;4.584;2022-10-16T14:07:35;24.60;72.10
37782;DHT22;23621;50.878;4.584;2022-10-16T14:10:17;24.60;72.20
37782;DHT22;23621;50.878;4.584;2022-10-16T14:12:45;24.70;72.40
37782;DHT22;23621;50.878;4.584;2022-10-16T14:15:17;24.60;72.30
37782;DHT22;23621;50.878;4.584;2022-10-16T14:17:47;24.70;72.80
37782;DHT22;23621;50.878;4.584;2022-10-16T14:20:15;24.60;72.90
37782;DHT22;23621;50.878;4.584;2022-10-16T14:22:43;24.60;73.00
37782;DHT22;23621;50.878;4.584;2022-10-16T14:25:20;24.60;72.90
37782;DHT22;23621;50.878;4.584;2022-10-16T14:28:15;24.60;72.90
37782;DHT22;23621;50.878;4.584;2022-10-16T14:30:52;24.50;72.70
37782;DHT22;23621;50.878;4.584;2022-10-16T14:38:39;24.50;73.30
37782;DHT22;23621;50.878;4.584;2022-10-16T14:41:06;24.50;73.40
37782;DHT22;23621;50.878;4.584;2022-10-16T14:43:39;24.50;73.40
37782;DHT22;23621;50.878;4.584;2022-10-16T14:46:14;24.60;73.50
37782;DHT22;23621;50.878;4.584;2022-10-16T14:48:43;24.60;73.30
37782;DHT22;23621;50.878;4.584;2022-10-16T14:51:16;24.60;73.00
37782;DHT22;23621;50.878;4.584;2022-10-16T14:53:43;24.60;72.90
37782;DHT22;23621;50.878;4.584;2022-10-16T14:56:19;24.60;72.80
37782;DHT22;23621;50.878;4.584;2022-10-16T14:58:49;24.60;72.80
37782;DHT22;23621;50.878;4.584;2022-10-16T15:01:17;24.60;72.90
37782;DHT22;23621;50.878;4.584;2022-10-16T15:03:44;24.60;72.80
37782;DHT22;23621;50.878;4.584;2022-10-16T15:06:12;24.60;72.80
37782;DHT22;23621;50.878;4.584;2022-10-16T15:08:39;24.60;72.90
37782;DHT22;23621;50.878;4.584;2022-10-16T15:11:15;24.60;72.90
37782;DHT22;23621;50.878;4.584;2022-10-16T15:13:42;24.60;72.80
37782;DHT22;23621;50.878;4.584;2022-10-16T15:16:14;24.60;72.80
37782;DHT22;23621;50.878;4.584;2022-10-16T15:18:42;24.60;72.80
37782;DHT22;23621;50.878;4.584;2022-10-16T15:21:21;24.60;72.80
37782;DHT22;23621;50.878;4.584;2022-10-16T15:23:49;24.60;72.90
37782;DHT22;23621;50.878;4.584;2022-10-16T15:26:17;24.60;73.00
37782;DHT22;23621;50.878;4.584;2022-10-16T15:28:44;24.60;73.20
37782;DHT22;23621;50.878;4.584;2022-10-16T15:31:11;24.60;73.30
37782;DHT22;23621;50.878;4.584;2022-10-16T15:33:38;24.60;73.20
37782;DHT22;23621;50.878;4.584;2022-10-16T15:36:05;24.50;73.10
37782;DHT22;23621;50.878;4.584;2022-10-16T15:38:33;24.50;73.20
37782;DHT22;23621;50.878;4.584;2022-10-16T15:41:00;24.40;73.10
37782;DHT22;23621;50.878;4.584;2022-10-16T15:43:27;24.40;73.20
37782;DHT22;23621;50.878;4.584;2022-10-16T15:46:06;24.40;73.20
37782;DHT22;23621;50.878;4.584;2022-10-16T15:48:34;24.30;73.20
37782;DHT22;23621;50.878;4.584;2022-10-16T15:51:05;24.30;73.20
37782;DHT22;23621;50.878;4.584;2022-10-16T15:53:32;24.30;73.20
37782;DHT22;23621;50.878;4.584;2022-10-16T15:56:05;24.30;73.10
37782;DHT22;23621;50.878;4.584;2022-10-16T15:58:32;24.20;73.10
37782;DHT22;23621;50.878;4.584;2022-10-16T16:01:00;24.20;73.10
37782;DHT22;23621;50.878;4.584;2022-10-16T16:03:29;24.20;73.20
37782;DHT22;23621;50.878;4.584;2022-10-16T16:05:56;24.20;73.40
37782;DHT22;23621;50.878;4.584;2022-10-16T16:08:23;24.10;73.40
37782;DHT22;23621;50.878;4.584;2022-10-16T16:13:29;24.10;73.70
37782;DHT22;23621;50.878;4.584;2022-10-16T16:15:56;24.00;73.80
37782;DHT22;23621;50.878;4.584;2022-10-16T16:18:23;24.00;74.10
37782;DHT22;23621;50.878;4.584;2022-10-16T16:20:51;24.00;74.30
37782;DHT22;23621;50.878;4.584;2022-10-16T16:23:18;24.00;74.60
37782;DHT22;23621;50.878;4.584;2022-10-16T16:26:05;23.90;74.60
37782;DHT22;23621;50.878;4.584;2022-10-16T16:28:32;23.90;74.90
37782;DHT22;23621;50.878;4.584;2022-10-16T16:31:00;23.90;74.80
37782;DHT22;23621;50.878;4.584;2022-10-16T16:33:26;23.90;74.60
37782;DHT22;23621;50.878;4.584;2022-10-16T16:36:01;23.90;74.50
37782;DHT22;23621;50.878;4.584;2022-10-16T16:38:29;23.90;74.50
37782;DHT22;23621;50.878;4.584;2022-10-16T16:40:56;23.80;74.60
37782;DHT22;23621;50.878;4.584;2022-10-16T16:43:26;23.80;74.80
37782;DHT22;23621;50.878;4.584;2022-10-16T16:45:54;23.80;75.10
37782;DHT22;23621;50.878;4.584;2022-10-16T16:48:21;23.80;75.20
37782;DHT22;23621;50.878;4.584;2022-10-16T16:50:48;23.70;75.30
37782;DHT22;23621;50.878;4.584;2022-10-16T16:53:15;23.70;75.40
37782;DHT22;23621;50.878;4.584;2022-10-16T16:55:42;23.70;75.60
37782;DHT22;23621;50.878;4.584;2022-10-16T16:58:09;23.60;75.70
37782;DHT22;23621;50.878;4.584;2022-10-16T17:00:36;23.60;75.70
37782;DHT22;23621;50.878;4.584;2022-10-16T17:03:02;23.60;75.90
37782;DHT22;23621;50.878;4.584;2022-10-16T17:05:29;23.60;76.00
37782;DHT22;23621;50.878;4.584;2022-10-16T17:07:56;23.50;76.00
37782;DHT22;23621;50.878;4.584;2022-10-16T17:10:23;23.50;76.10
37782;DHT22;23621;50.878;4.584;2022-10-16T17:12:50;23.50;76.10
37782;DHT22;23621;50.878;4.584;2022-10-16T17:15:17;23.40;76.20
37782;DHT22;23621;50.878;4.584;2022-10-16T17:17:44;23.40;76.60
37782;DHT22;23621;50.878;4.584;2022-10-16T17:20:10;23.40;76.90
37782;DHT22;23621;50.878;4.584;2022-10-16T17:22:40;23.40;77.30
37782;DHT22;23621;50.878;4.584;2022-10-16T17:25:07;23.40;77.60
37782;DHT22;23621;50.878;4.584;2022-10-16T17:27:34;23.40;77.80
37782;DHT22;23621;50.878;4.584;2022-10-16T17:30:03;23.40;78.20
37782;DHT22;23621;50.878;4.584;2022-10-16T17:32:30;23.40;78.40
37782;DHT22;23621;50.878;4.584;2022-10-16T17:34:56;23.40;78.60
37782;DHT22;23621;50.878;4.584;2022-10-16T17:37:23;23.40;78.90
37782;DHT22;23621;50.878;4.584;2022-10-16T17:39:50;23.30;78.90
37782;DHT22;23621;50.878;4.584;2022-10-16T17:42:18;23.40;79.20
37782;DHT22;23621;50.878;4.584;2022-10-16T17:44:45;23.40;79.20
37782;DHT22;23621;50.878;4.584;2022-10-16T17:47:12;23.30;79.20
37782;DHT22;23621;50.878;4.584;2022-10-16T17:49:38;23.30;79.30
37782;DHT22;23621;50.878;4.584;2022-10-16T17:52:05;23.30;79.50
37782;DHT22;23621;50.878;4.584;2022-10-16T17:54:32;23.30;79.70
37782;DHT22;23621;50.878;4.584;2022-10-16T17:56:59;23.30;79.80
37782;DHT22;23621;50.878;4.584;2022-10-16T17:59:26;23.20;79.80
37782;DHT22;23621;50.878;4.584;2022-10-16T18:01:54;23.20;79.80